Time;durP1;ratioP1;P1;durP2;ratioP2;P2;SDS_P1;SDS_P2;PMS_P1;PMS_P2;Temp;Humidity;BMP_temperature;BMP_pressure;BME280_temperature;BME280_humidity;BME280_pressure;Samples;Min_cycle;Max_cycle;Signal;HPM_P1;HPM_P2
2022/08/10 00:01:24;;;;;;;2.38;1.00;;;17.90;99.90;;;;;;5035613;28;20031;-90
2022/08/10 00:03:50;;;;;;;2.20;1.00;;;17.90;99.90;;;;;;5034405;28;20029;-91
2022/08/10 00:06:16;;;;;;;2.05;1.02;;;17.90;99.90;;;;;;5053007;28;20501;-91
2022/08/10 00:08:42;;;;;;;4.35;1.10;;;17.80;99.90;;;;;;5052382;28;20036;-90
2022/08/10 00:11:08;;;;;;;1.88;1.05;;;17.80;99.90;;;;;;5043688;28;20168;-90
2022/08/10 00:13:34;;;;;;;2.10;1.20;;;17.80;99.90;;;;;;5035140;28;20037;-92
2022/08/10 00:15:59;;;;;;;2.88;1.13;;;17.80;99.90;;;;;;5035498;28;20027;-91
2022/08/10 00:18:26;;;;;;;3.75;1.30;;;17.80;99.90;;;;;;5045215;28;20151;-89
2022/08/10 00:20:52;;;;;;;2.90;1.30;;;17.70;99.90;;;;;;5034000;28;20563;-91
2022/08/10 00:23:18;;;;;;;3.17;1.25;;;17.70;99.90;;;;;;5034115;28;20074;-91
2022/08/10 00:25:43;;;;;;;4.80;2.35;;;17.70;99.90;;;;;;5035544;28;20033;-91
2022/08/10 00:28:09;;;;;;;3.15;1.73;;;17.60;99.90;;;;;;5033825;28;20037;-91
2022/08/10 00:30:35;;;;;;;3.92;1.48;;;17.60;99.90;;;;;;5025916;28;20040;-89
2022/08/10 00:33:01;;;;;;;2.15;1.20;;;17.50;99.90;;;;;;5016459;28;20032;-91
2022/08/10 00:35:26;;;;;;;3.25;1.58;;;17.50;99.90;;;;;;5040328;28;20098;-92
2022/08/10 00:37:52;;;;;;;2.30;1.60;;;17.50;99.90;;;;;;5033931;28;20021;-91
2022/08/10 00:40:17;;;;;;;3.55;1.20;;;17.50;99.90;;;;;;5030414;28;20026;-91
2022/08/10 00:42:43;;;;;;;2.65;1.45;;;17.50;99.90;;;;;;5031509;28;20029;-90
2022/08/10 00:45:09;;;;;;;4.03;1.50;;;17.40;99.90;;;;;;5051175;28;20121;-91
2022/08/10 00:47:34;;;;;;;3.70;1.50;;;17.40;99.90;;;;;;5049711;28;20032;-91
2022/08/10 00:50:00;;;;;;;3.65;1.35;;;17.40;99.90;;;;;;5049683;28;20032;-92
2022/08/10 00:52:28;;;;;;;2.35;1.52;;;17.40;99.90;;;;;;5034943;28;20032;-92
2022/08/10 00:54:54;;;;;;;8.20;2.67;;;17.30;99.90;;;;;;5031571;28;20580;-89
2022/08/10 00:57:20;;;;;;;2.78;1.48;;;17.30;99.90;;;;;;5039345;28;20060;-89
2022/08/10 00:59:45;;;;;;;4.47;1.35;;;17.30;99.90;;;;;;5046717;28;20034;-91
2022/08/10 01:02:11;;;;;;;3.53;1.27;;;17.30;99.90;;;;;;5030371;28;20076;-90
2022/08/10 01:04:37;;;;;;;2.55;1.38;;;17.20;99.90;;;;;;5034627;28;20126;-90
2022/08/10 01:07:08;;;;;;;2.63;1.40;;;17.20;99.90;;;;;;5020634;28;20524;-91
2022/08/10 01:09:49;;;;;;;4.60;1.33;;;17.10;99.90;;;;;;5033227;28;20051;-91
2022/08/10 01:12:28;;;;;;;2.22;1.10;;;17.10;99.90;;;;;;5036927;28;20108;-89
2022/08/10 01:15:23;;;;;;;2.95;1.17;;;17.10;99.90;;;;;;5035577;28;20060;-91
2022/08/10 01:18:13;;;;;;;2.58;1.10;;;17.00;99.90;;;;;;5050405;28;20068;-91
2022/08/10 01:21:16;;;;;;;1.92;1.23;;;17.00;99.90;;;;;;5023158;28;20041;-90
2022/08/10 01:24:16;;;;;;;2.00;0.88;;;17.00;99.90;;;;;;5054552;28;20051;-91
2022/08/10 01:27:06;;;;;;;2.33;1.13;;;16.90;99.90;;;;;;5036463;28;20112;-90
2022/08/10 01:30:05;;;;;;;2.13;1.00;;;16.90;99.90;;;;;;5035810;28;20549;-91
2022/08/10 01:32:41;;;;;;;1.98;1.08;;;16.90;99.90;;;;;;5023214;28;20026;-90
2022/08/10 01:35:42;;;;;;;2.40;1.30;;;16.90;99.90;;;;;;5042126;28;20028;-90
2022/08/10 01:38:29;;;;;;;2.75;0.98;;;16.90;99.90;;;;;;5025951;28;20031;-90
2022/08/10 01:41:05;;;;;;;3.10;0.90;;;16.90;99.90;;;;;;5058335;28;20029;-89
2022/08/10 01:43:35;;;;;;;2.58;0.90;;;16.90;99.90;;;;;;5032148;28;20502;-91
2022/08/10 01:46:02;;;;;;;2.55;1.02;;;16.80;99.90;;;;;;5029549;28;20485;-91
2022/08/10 01:48:35;;;;;;;2.15;1.30;;;16.80;99.90;;;;;;5034302;28;20653;-90
2022/08/10 01:51:13;;;;;;;3.25;0.90;;;16.80;99.90;;;;;;5035289;28;20171;-90
2022/08/10 01:53:43;;;;;;;1.67;1.10;;;16.70;99.90;;;;;;5036414;28;20029;-91
2022/08/10 01:56:12;;;;;;;2.42;1.27;;;16.70;99.90;;;;;;5036142;28;20032;-92
2022/08/10 01:58:39;;;;;;;5.07;1.27;;;16.70;99.90;;;;;;5033219;28;20482;-89
2022/08/10 02:01:06;;;;;;;3.35;1.00;;;16.60;99.90;;;;;;5046034;28;20533;-91
2022/08/10 02:03:35;;;;;;;5.20;1.90;;;16.60;99.90;;;;;;5041198;28;20030;-91
2022/08/10 02:06:03;;;;;;;3.25;1.40;;;16.60;99.90;;;;;;5018523;28;20046;-89
2022/08/10 02:08:31;;;;;;;2.70;1.20;;;16.60;99.90;;;;;;5026610;28;20520;-90
2022/08/10 02:10:59;;;;;;;4.65;1.33;;;16.50;99.90;;;;;;5029443;28;20057;-89
2022/08/10 02:13:26;;;;;;;1.63;1.00;;;16.50;99.90;;;;;;5040568;28;20025;-90
2022/08/10 02:15:52;;;;;;;1.75;1.02;;;16.50;99.90;;;;;;5048104;28;20030;-90
2022/08/10 02:18:19;;;;;;;2.10;1.02;;;16.40;99.90;;;;;;5033084;28;20305;-89
2022/08/10 02:20:48;;;;;;;1.98;1.30;;;16.40;99.90;;;;;;5030390;28;20057;-90
2022/08/10 02:23:19;;;;;;;5.00;1.27;;;16.40;99.90;;;;;;5037646;28;20449;-89
2022/08/10 02:25:46;;;;;;;1.95;1.30;;;16.40;99.90;;;;;;5036309;28;20079;-89
2022/08/10 02:28:15;;;;;;;2.70;1.10;;;16.40;99.90;;;;;;5034213;28;20043;-90
2022/08/10 02:30:41;;;;;;;4.50;1.35;;;16.30;99.90;;;;;;5032775;28;20029;-89
2022/08/10 02:33:08;;;;;;;2.00;1.15;;;16.30;99.90;;;;;;5038614;28;20082;-89
2022/08/10 02:35:36;;;;;;;3.58;1.33;;;16.30;99.90;;;;;;5036590;28;20032;-89
2022/08/10 02:38:06;;;;;;;3.33;1.20;;;16.30;99.90;;;;;;5034029;28;20073;-89
2022/08/10 02:40:37;;;;;;;3.33;1.58;;;16.20;99.90;;;;;;5037606;28;20102;-89
2022/08/10 02:43:33;;;;;;;4.05;1.40;;;16.20;99.90;;;;;;5034927;28;20593;-89
2022/08/10 02:46:11;;;;;;;5.80;1.40;;;16.20;99.90;;;;;;5030841;28;20505;-89
2022/08/10 02:48:44;;;;;;;3.92;1.30;;;16.10;99.90;;;;;;5032418;28;20128;-90
2022/08/10 02:51:18;;;;;;;2.08;1.10;;;16.10;99.90;;;;;;5048061;28;20551;-90
2022/08/10 02:53:50;;;;;;;2.75;1.40;;;16.10;99.90;;;;;;5035950;28;20025;-90
2022/08/10 02:56:30;;;;;;;2.63;1.40;;;16.10;99.90;;;;;;5030995;28;20143;-90
2022/08/10 02:59:04;;;;;;;2.70;1.27;;;16.10;99.90;;;;;;5029905;28;20065;-90
2022/08/10 03:01:35;;;;;;;3.22;1.25;;;16.10;99.90;;;;;;5021574;28;20377;-89
2022/08/10 03:04:03;;;;;;;2.55;1.75;;;16.00;99.90;;;;;;5037613;28;20091;-91
2022/08/10 03:06:43;;;;;;;5.03;1.92;;;16.00;99.90;;;;;;5037742;28;20044;-90
2022/08/10 03:09:12;;;;;;;2.85;1.70;;;16.00;99.90;;;;;;5036761;28;20067;-91
2022/08/10 03:11:40;;;;;;;3.20;1.83;;;15.90;99.90;;;;;;5031356;28;20059;-88
2022/08/10 03:14:08;;;;;;;2.97;1.98;;;15.90;99.90;;;;;;5031693;28;20069;-89
2022/08/10 03:16:35;;;;;;;2.83;1.85;;;15.90;99.90;;;;;;5045027;28;20036;-89
2022/08/10 03:19:03;;;;;;;5.07;1.83;;;15.90;99.90;;;;;;5046602;28;20025;-89
2022/08/10 03:21:30;;;;;;;4.10;2.50;;;15.90;99.90;;;;;;5043662;28;20075;-90
2022/08/10 03:24:01;;;;;;;3.67;1.88;;;15.80;99.90;;;;;;5035508;28;20468;-89
2022/08/10 03:26:29;;;;;;;3.95;2.00;;;15.80;99.90;;;;;;5032708;28;20025;-89
2022/08/10 03:28:57;;;;;;;4.90;2.10;;;15.80;99.90;;;;;;5034591;28;20037;-88
2022/08/10 03:31:25;;;;;;;5.93;2.40;;;15.80;99.90;;;;;;5039828;28;20021;-89
2022/08/10 03:33:52;;;;;;;3.17;2.00;;;15.70;99.90;;;;;;5035464;28;20025;-88
2022/08/10 03:36:17;;;;;;;4.38;2.15;;;15.70;99.90;;;;;;5036140;28;20025;-89
2022/08/10 03:38:47;;;;;;;3.63;2.45;;;15.60;99.90;;;;;;5045636;28;20079;-89
2022/08/10 03:41:15;;;;;;;3.13;2.13;;;15.60;99.90;;;;;;5050889;28;20433;-88
2022/08/10 03:43:43;;;;;;;4.35;2.33;;;15.60;99.90;;;;;;5034792;28;20051;-88
2022/08/10 03:46:11;;;;;;;3.28;2.35;;;15.50;99.90;;;;;;5050445;28;20029;-88
2022/08/10 03:48:38;;;;;;;3.92;2.17;;;15.60;99.90;;;;;;5028877;28;20033;-90
2022/08/10 03:51:05;;;;;;;4.10;2.85;;;15.50;99.90;;;;;;5030971;28;20048;-90
2022/08/10 03:53:32;;;;;;;3.78;2.45;;;15.50;99.90;;;;;;5035225;28;20065;-88
2022/08/10 03:55:58;;;;;;;3.38;1.90;;;15.50;99.90;;;;;;5034245;28;20079;-88
2022/08/10 03:58:24;;;;;;;5.47;2.35;;;15.50;99.90;;;;;;5015795;28;20026;-88
2022/08/10 04:00:50;;;;;;;3.97;3.03;;;15.50;99.90;;;;;;5023477;28;20116;-88
2022/08/10 04:03:17;;;;;;;3.75;2.55;;;15.50;99.90;;;;;;5035365;28;20123;-88
2022/08/10 04:05:43;;;;;;;3.63;2.10;;;15.40;99.90;;;;;;5034466;28;20041;-89
2022/08/10 04:08:08;;;;;;;4.20;2.65;;;15.40;99.90;;;;;;5050758;28;20447;-89
2022/08/10 04:10:34;;;;;;;5.93;3.28;;;15.40;99.90;;;;;;5046883;28;20057;-87
2022/08/10 04:13:00;;;;;;;6.00;3.50;;;15.40;99.90;;;;;;5020949;28;20039;-89
2022/08/10 04:15:25;;;;;;;4.30;3.13;;;15.40;99.90;;;;;;5022481;28;20029;-89
2022/08/10 04:17:51;;;;;;;5.10;3.15;;;15.40;99.90;;;;;;5056734;28;20032;-89
2022/08/10 04:20:20;;;;;;;7.88;3.10;;;15.40;99.90;;;;;;5048494;28;20388;-89
2022/08/10 04:22:50;;;;;;;7.20;2.80;;;15.40;99.90;;;;;;5031572;28;20037;-89
2022/08/10 04:25:17;;;;;;;4.30;3.30;;;15.30;99.90;;;;;;5040785;28;20036;-88
2022/08/10 04:27:43;;;;;;;5.30;3.63;;;15.30;99.90;;;;;;5035184;28;20079;-89
2022/08/10 04:30:09;;;;;;;3.75;3.10;;;15.30;99.90;;;;;;5016402;28;20397;-88
2022/08/10 04:32:36;;;;;;;5.90;3.97;;;15.30;99.90;;;;;;5033926;28;20029;-88
2022/08/10 04:35:03;;;;;;;5.47;3.75;;;15.30;99.90;;;;;;5046304;28;20030;-88
2022/08/10 04:37:30;;;;;;;7.15;3.75;;;15.30;99.90;;;;;;5037488;28;20068;-88
2022/08/10 04:39:56;;;;;;;5.30;3.45;;;15.30;99.90;;;;;;5021599;28;20500;-88
2022/08/10 04:42:22;;;;;;;4.45;3.50;;;15.30;99.90;;;;;;5035690;28;20036;-89
2022/08/10 04:44:49;;;;;;;6.65;4.50;;;15.30;99.90;;;;;;5024895;28;20025;-88
2022/08/10 04:47:15;;;;;;;5.22;3.88;;;15.30;99.90;;;;;;5033360;28;20017;-88
2022/08/10 04:49:41;;;;;;;7.75;4.57;;;15.30;99.90;;;;;;5045426;28;20489;-90
2022/08/10 04:52:06;;;;;;;5.65;4.38;;;15.30;99.90;;;;;;5039631;28;20021;-89
2022/08/10 04:54:32;;;;;;;7.55;4.25;;;15.30;99.90;;;;;;5036119;28;20040;-89
2022/08/10 04:56:57;;;;;;;8.13;5.75;;;15.30;99.90;;;;;;5051298;28;20021;-91
2022/08/10 04:59:23;;;;;;;8.23;5.47;;;15.30;99.90;;;;;;5040554;28;20024;-90
2022/08/10 05:01:48;;;;;;;8.02;5.32;;;15.30;99.90;;;;;;5037612;28;20040;-90
2022/08/10 05:04:14;;;;;;;7.85;5.75;;;15.30;99.90;;;;;;5035768;28;20044;-90
2022/08/10 05:06:39;;;;;;;12.00;5.88;;;15.30;99.90;;;;;;4987451;28;1258786;-90
2022/08/10 05:09:05;;;;;;;8.43;5.40;;;15.40;99.90;;;;;;5026309;28;20037;-91
2022/08/10 05:11:30;;;;;;;8.95;5.30;;;15.40;99.90;;;;;;5038975;28;20480;-90
2022/08/10 05:13:56;;;;;;;9.27;5.95;;;15.50;99.90;;;;;;5046694;28;20028;-90
2022/08/10 05:16:21;;;;;;;11.75;5.90;;;15.50;99.90;;;;;;5024931;28;20383;-89
2022/08/10 05:18:47;;;;;;;9.10;5.57;;;15.50;99.90;;;;;;5028901;28;20051;-89
2022/08/10 05:21:12;;;;;;;8.70;5.72;;;15.60;99.90;;;;;;5024112;28;20418;-89
2022/08/10 05:23:38;;;;;;;9.43;6.20;;;15.60;99.90;;;;;;5036162;28;20046;-90
2022/08/10 05:26:04;;;;;;;9.82;7.15;;;15.70;99.90;;;;;;5040641;28;20089;-89
2022/08/10 05:28:29;;;;;;;8.90;7.10;;;15.80;99.90;;;;;;5038767;28;20447;-90
2022/08/10 05:30:55;;;;;;;7.30;5.88;;;15.80;99.90;;;;;;5033522;28;20025;-88
2022/08/10 05:33:20;;;;;;;11.68;6.97;;;15.90;99.90;;;;;;5032835;28;20054;-88
2022/08/10 05:35:46;;;;;;;11.15;6.72;;;15.90;99.90;;;;;;5037456;28;20021;-89
2022/08/10 05:38:12;;;;;;;11.73;7.05;;;16.00;99.90;;;;;;5038419;28;20447;-89
2022/08/10 05:40:40;;;;;;;7.40;6.15;;;16.00;99.90;;;;;;5037680;28;20114;-88
2022/08/10 05:43:06;;;;;;;10.85;7.38;;;16.10;99.90;;;;;;5038070;28;20484;-88
2022/08/10 05:45:31;;;;;;;9.18;6.70;;;16.20;99.90;;;;;;5037263;28;20032;-88
2022/08/10 05:47:57;;;;;;;9.73;6.78;;;16.40;99.90;;;;;;5048404;28;20034;-88
2022/08/10 05:50:26;;;;;;;8.93;5.93;;;16.60;99.90;;;;;;5036844;28;20068;-88
2022/08/10 05:52:52;;;;;;;10.43;6.10;;;16.80;99.90;;;;;;5036730;28;20435;-88
2022/08/10 05:55:18;;;;;;;9.10;7.05;;;17.00;99.90;;;;;;5037936;28;20025;-88
2022/08/10 05:57:44;;;;;;;11.57;6.80;;;17.10;99.90;;;;;;5035631;28;20108;-88
2022/08/10 06:00:13;;;;;;;10.55;6.63;;;17.20;99.90;;;;;;5033905;28;20026;-88
2022/08/10 06:02:46;;;;;;;9.50;6.70;;;17.20;99.90;;;;;;5037248;28;20025;-88
2022/08/10 06:05:19;;;;;;;10.18;6.18;;;17.30;99.90;;;;;;5055610;28;20024;-87
2022/08/10 06:07:56;;;;;;;8.43;5.60;;;17.40;99.90;;;;;;5033825;28;20119;-89
2022/08/10 06:10:22;;;;;;;8.50;5.68;;;17.40;99.90;;;;;;5022238;28;20039;-89
2022/08/10 06:14:59;;;;;;;9.45;6.00;;;17.50;99.90;;;;;;5021481;28;20025;-88
2022/08/10 06:15:37;;;;;;;7.00;5.20;;;17.60;99.90;;;;;;5049100;28;20029;-88
2022/08/10 06:18:04;;;;;;;7.93;5.63;;;17.70;99.90;;;;;;5064098;28;20485;-88
2022/08/10 06:20:31;;;;;;;9.48;5.80;;;17.80;99.90;;;;;;5037367;28;20024;-88
2022/08/10 06:23:01;;;;;;;7.60;5.35;;;17.80;99.90;;;;;;5039100;28;20389;-89
2022/08/10 06:25:29;;;;;;;9.50;6.05;;;17.80;99.90;;;;;;5028923;28;20116;-89
2022/08/10 06:27:55;;;;;;;8.90;5.88;;;17.90;99.90;;;;;;5017108;28;20500;-89
2022/08/10 06:30:23;;;;;;;10.35;6.03;;;17.90;99.90;;;;;;5035042;28;20037;-88
2022/08/10 06:32:50;;;;;;;8.38;5.93;;;18.00;99.90;;;;;;5034667;28;20044;-88
2022/08/10 06:35:16;;;;;;;7.70;6.32;;;18.10;99.90;;;;;;5054877;28;20029;-89
2022/08/10 06:37:43;;;;;;;9.27;5.97;;;18.10;99.90;;;;;;5036945;28;20025;-89
2022/08/10 06:40:10;;;;;;;7.57;5.40;;;18.20;99.90;;;;;;5036689;28;20040;-89
2022/08/10 06:42:41;;;;;;;7.80;5.22;;;18.30;99.90;;;;;;5037056;28;20025;-88
2022/08/10 06:45:10;;;;;;;6.85;5.05;;;18.50;99.90;;;;;;5034700;28;20025;-88
2022/08/10 06:47:40;;;;;;;9.52;5.85;;;18.60;99.90;;;;;;5045027;28;20033;-90
2022/08/10 06:50:47;;;;;;;7.88;4.80;;;18.70;99.90;;;;;;5038442;28;20033;-90
2022/08/10 06:53:19;;;;;;;8.80;5.45;;;18.80;99.90;;;;;;5023370;28;20029;-90
2022/08/10 06:55:51;;;;;;;6.38;4.30;;;18.80;99.90;;;;;;5054521;28;20029;-89
2022/08/10 06:58:20;;;;;;;8.80;5.43;;;18.90;99.90;;;;;;5070219;28;20063;-89
2022/08/10 07:00:47;;;;;;;9.07;4.82;;;19.00;99.90;;;;;;5038685;28;20032;-90
2022/08/10 07:03:16;;;;;;;5.57;4.50;;;19.10;99.90;;;;;;5054426;28;20071;-90
2022/08/10 07:05:48;;;;;;;7.53;4.03;;;19.10;99.90;;;;;;5053303;28;20041;-90
2022/08/10 07:08:18;;;;;;;6.45;4.88;;;19.30;99.90;;;;;;5053622;28;20036;-91
2022/08/10 07:10:45;;;;;;;8.23;4.85;;;19.40;99.90;;;;;;5035508;28;20025;-89
2022/08/10 07:13:13;;;;;;;6.47;4.40;;;19.50;99.90;;;;;;5036007;28;20108;-90
2022/08/10 07:15:40;;;;;;;8.15;4.22;;;19.60;99.90;;;;;;5016735;28;20075;-90
2022/08/10 07:18:06;;;;;;;5.85;4.18;;;19.70;99.90;;;;;;5017343;28;20034;-90
2022/08/10 07:20:33;;;;;;;5.20;4.10;;;19.70;99.90;;;;;;5016977;28;20024;-92
2022/08/10 07:23:00;;;;;;;5.65;3.95;;;19.80;99.90;;;;;;5034592;28;20029;-90
2022/08/10 07:25:28;;;;;;;6.43;3.92;;;19.90;99.90;;;;;;5036301;28;20059;-90
2022/08/10 07:27:56;;;;;;;9.07;4.00;;;20.00;99.90;;;;;;5035933;28;20040;-89
2022/08/10 07:30:23;;;;;;;5.43;3.30;;;20.00;99.90;;;;;;5035077;28;20078;-89
2022/08/10 07:32:51;;;;;;;6.40;3.40;;;20.10;99.90;;;;;;5040465;28;20025;-91
2022/08/10 07:35:18;;;;;;;8.52;3.10;;;20.30;99.90;;;;;;5034863;28;20021;-90
2022/08/10 07:37:48;;;;;;;3.88;2.55;;;20.40;99.90;;;;;;5035717;28;20128;-90
2022/08/10 07:40:15;;;;;;;5.75;2.63;;;20.60;99.90;;;;;;5036059;28;20115;-90
2022/08/10 07:42:42;;;;;;;4.35;2.47;;;20.70;99.90;;;;;;5035389;28;20031;-89
2022/08/10 07:45:08;;;;;;;3.97;3.00;;;20.80;99.90;;;;;;5040663;28;20375;-90
2022/08/10 07:47:41;;;;;;;6.95;3.13;;;21.00;99.90;;;;;;5037713;28;20033;-89
2022/08/10 07:50:10;;;;;;;7.03;2.75;;;21.10;99.90;;;;;;5035782;28;20430;-88
2022/08/10 07:52:36;;;;;;;5.35;2.25;;;21.20;99.90;;;;;;5035291;28;20029;-90
2022/08/10 07:55:03;;;;;;;6.75;2.40;;;21.30;99.90;;;;;;5035931;28;20028;-89
2022/08/10 07:57:33;;;;;;;7.32;2.42;;;21.50;99.90;;;;;;5035785;28;20078;-89
2022/08/10 08:00:03;;;;;;;4.03;1.60;;;21.60;99.90;;;;;;5027650;28;20033;-89
2022/08/10 08:02:38;;;;;;;5.90;2.67;;;21.80;99.70;;;;;;5035521;28;20025;-90
2022/08/10 08:05:08;;;;;;;5.10;1.83;;;21.90;98.80;;;;;;5031924;28;20037;-88
2022/08/10 08:07:36;;;;;;;4.47;2.42;;;22.00;98.70;;;;;;5032657;28;20575;-90
2022/08/10 08:10:03;;;;;;;4.38;2.35;;;22.00;98.00;;;;;;5048907;28;20032;-89
2022/08/10 08:12:31;;;;;;;4.47;1.73;;;22.10;97.70;;;;;;5037716;28;20056;-89
2022/08/10 08:14:58;;;;;;;2.97;1.60;;;22.10;97.40;;;;;;5033881;28;20025;-88
2022/08/10 08:17:25;;;;;;;4.20;1.88;;;22.20;97.20;;;;;;5015528;28;20466;-88
2022/08/10 08:19:52;;;;;;;3.42;1.60;;;22.30;96.90;;;;;;5017272;28;20116;-88
2022/08/10 08:22:19;;;;;;;3.92;1.40;;;22.40;96.60;;;;;;5053490;28;20021;-88
2022/08/10 08:24:46;;;;;;;3.70;1.38;;;22.50;96.30;;;;;;5051810;28;20075;-89
2022/08/10 08:27:18;;;;;;;6.55;2.38;;;22.70;96.30;;;;;;5042240;28;20028;-89
2022/08/10 08:29:45;;;;;;;;;;;22.80;95.40;;;;;;5050765;28;20048;-88
2022/08/10 08:32:14;;;;;;;4.20;1.35;;;22.90;95.70;;;;;;5035741;28;19911;-88
2022/08/10 08:34:42;;;;;;;3.67;1.33;;;23.00;95.30;;;;;;5034738;28;20143;-89
2022/08/10 08:37:10;;;;;;;4.10;1.27;;;23.10;94.80;;;;;;5035085;28;20115;-89
2022/08/10 08:39:36;;;;;;;2.58;1.15;;;23.20;94.50;;;;;;5041361;28;20025;-88
2022/08/10 08:42:15;;;;;;;4.07;1.10;;;23.30;94.40;;;;;;5052484;28;20035;-88
2022/08/10 08:45:11;;;;;;;3.13;1.00;;;23.50;93.90;;;;;;5038663;28;20350;-90
2022/08/10 08:48:17;;;;;;;5.47;1.70;;;23.70;93.60;;;;;;5031797;28;20036;-89
2022/08/10 08:51:03;;;;;;;4.75;1.10;;;23.80;92.90;;;;;;5034901;28;20150;-89
2022/08/10 08:54:12;;;;;;;6.15;1.42;;;23.80;92.40;;;;;;5015125;28;20045;-89
2022/08/10 08:56:48;;;;;;;2.97;1.33;;;23.90;92.20;;;;;;5055224;28;20021;-89
2022/08/10 09:00:01;;;;;;;3.80;0.90;;;24.00;91.90;;;;;;5015719;28;20656;-88
2022/08/10 09:02:30;;;;;;;3.67;0.80;;;24.10;91.30;;;;;;4960853;28;20128;-88
2022/08/10 09:05:27;;;;;;;3.72;1.63;;;24.20;91.10;;;;;;5034725;28;20032;-89
2022/08/10 09:08:10;;;;;;;2.53;1.05;;;24.30;90.30;;;;;;5035608;28;20072;-89
2022/08/10 09:10:53;;;;;;;3.03;0.88;;;24.50;89.20;;;;;;5045218;28;20028;-87
2022/08/10 09:13:40;;;;;;;3.13;0.80;;;24.50;88.30;;;;;;5045324;28;20515;-88
2022/08/10 09:16:29;;;;;;;2.28;1.42;;;24.60;87.30;;;;;;5034867;28;20056;-89
2022/08/10 09:19:21;;;;;;;2.58;0.75;;;24.70;86.10;;;;;;5033818;28;20040;-90
2022/08/10 09:22:11;;;;;;;2.47;0.70;;;24.80;86.00;;;;;;5044229;28;20029;-89
2022/08/10 09:24:59;;;;;;;2.80;1.05;;;24.90;85.50;;;;;;5034527;28;20029;-90
2022/08/10 09:27:51;;;;;;;3.78;0.75;;;25.10;85.10;;;;;;5034977;28;20025;-90
2022/08/10 09:30:40;;;;;;;2.38;0.80;;;25.20;84.40;;;;;;5031226;28;20033;-89
2022/08/10 09:33:11;;;;;;;1.75;0.77;;;25.30;84.10;;;;;;5036540;28;20033;-87
2022/08/10 09:35:52;;;;;;;2.83;0.80;;;25.50;84.80;;;;;;5038314;28;20374;-88
2022/08/10 09:38:52;;;;;;;3.67;0.70;;;25.60;83.50;;;;;;5038482;28;20039;-88
2022/08/10 09:41:43;;;;;;;4.38;0.73;;;25.80;82.80;;;;;;5036183;28;20465;-88
2022/08/10 09:44:44;;;;;;;2.38;0.52;;;25.90;81.50;;;;;;5033277;28;20091;-89
2022/08/10 09:47:23;;;;;;;3.08;0.65;;;26.10;80.70;;;;;;5038924;28;20029;-90
2022/08/10 09:50:12;;;;;;;4.93;1.00;;;26.20;79.40;;;;;;5037225;28;20119;-90
2022/08/10 09:53:06;;;;;;;3.78;0.70;;;26.20;78.70;;;;;;5037750;28;20378;-89
2022/08/10 09:56:20;;;;;;;2.13;0.70;;;26.50;78.50;;;;;;5037480;28;20116;-88
2022/08/10 09:58:49;;;;;;;2.25;0.55;;;26.60;77.20;;;;;;5037197;28;20017;-93
2022/08/10 10:01:34;;;;;;;1.98;0.60;;;26.70;75.50;;;;;;5055564;28;20029;-91
2022/08/10 10:04:10;;;;;;;2.60;0.50;;;26.80;74.40;;;;;;5031967;28;20091;-89
2022/08/10 10:06:43;;;;;;;2.28;0.52;;;26.80;72.70;;;;;;5050859;28;20052;-91
2022/08/10 10:09:18;;;;;;;2.35;0.70;;;26.80;71.80;;;;;;5037038;28;20056;-89
2022/08/10 10:12:08;;;;;;;3.10;0.60;;;26.80;70.50;;;;;;5055333;28;20016;-92
2022/08/10 10:18:05;;;;;;;4.97;0.65;;;26.80;69.80;;;;;;5053247;28;20124;-90
2022/08/10 10:20:40;;;;;;;2.03;0.60;;;27.00;67.80;;;;;;5035318;28;20035;-89
2022/08/10 10:23:22;;;;;;;2.45;0.50;;;27.00;67.80;;;;;;5034287;28;20099;-90
2022/08/10 10:25:58;;;;;;;2.75;0.50;;;27.00;67.90;;;;;;5035131;28;20025;-87
2022/08/10 10:28:39;;;;;;;2.58;0.80;;;27.00;66.70;;;;;;5035589;28;20128;-91
2022/08/10 10:31:25;;;;;;;2.67;0.60;;;27.10;66.10;;;;;;5042040;28;20025;-88
2022/08/10 10:34:11;;;;;;;1.70;0.70;;;27.10;66.50;;;;;;5043448;28;20025;-88
2022/08/10 10:36:40;;;;;;;8.50;0.60;;;27.20;65.80;;;;;;5037396;28;20516;-88
2022/08/10 10:39:07;;;;;;;3.08;0.85;;;27.40;64.00;;;;;;5067284;28;20025;-88
2022/08/10 10:41:40;;;;;;;1.25;0.50;;;27.40;64.00;;;;;;5045291;28;20086;-88
2022/08/10 10:44:20;;;;;;;1.00;0.45;;;27.40;64.00;;;;;;5035839;28;20040;-88
2022/08/10 10:47:10;;;;;;;2.22;0.55;;;27.60;63.20;;;;;;5036600;28;20566;-88
2022/08/10 10:50:02;;;;;;;0.80;0.35;;;27.70;63.60;;;;;;5036178;28;20050;-88
2022/08/10 10:52:41;;;;;;;1.45;0.50;;;27.70;62.60;;;;;;5041458;28;20020;-89
2022/08/10 10:55:30;;;;;;;2.35;0.70;;;27.80;62.20;;;;;;5057177;28;20028;-89
2022/08/10 10:58:14;;;;;;;2.70;0.40;;;27.80;61.80;;;;;;5056712;28;20017;-89
2022/08/10 11:00:54;;;;;;;1.65;0.45;;;27.80;60.80;;;;;;5063468;28;20496;-89
2022/08/10 11:03:52;;;;;;;1.55;0.50;;;27.80;60.90;;;;;;5056270;28;20036;-88
2022/08/10 11:07:00;;;;;;;2.88;0.60;;;27.90;60.30;;;;;;5050253;28;20045;-87
2022/08/10 11:09:38;;;;;;;1.70;0.50;;;27.90;60.10;;;;;;5016396;28;20033;-88
2022/08/10 11:12:28;;;;;;;3.20;0.50;;;28.00;60.20;;;;;;5034903;28;20428;-88
2022/08/10 11:15:35;;;;;;;2.13;0.70;;;28.10;60.30;;;;;;5015414;28;20067;-88
2022/08/10 11:18:08;;;;;;;1.55;0.40;;;28.20;60.80;;;;;;4953945;28;20038;-90
2022/08/10 11:20:59;;;;;;;1.25;0.40;;;28.30;60.20;;;;;;5032207;28;20047;-92
2022/08/10 11:23:33;;;;;;;2.15;0.40;;;28.30;59.40;;;;;;5050152;28;20508;-90
2022/08/10 11:26:14;;;;;;;1.30;0.60;;;28.40;59.80;;;;;;5057090;28;20032;-90
2022/08/10 11:28:45;;;;;;;0.90;0.43;;;28.50;59.20;;;;;;5052055;28;20057;-90
2022/08/10 11:31:21;;;;;;;1.10;0.45;;;28.40;58.40;;;;;;5053988;28;20053;-89
2022/08/10 11:33:52;;;;;;;3.00;0.40;;;28.40;58.70;;;;;;5035028;28;20440;-88
2022/08/10 11:36:35;;;;;;;1.27;0.50;;;28.40;58.50;;;;;;5035371;28;20071;-89
2022/08/10 11:39:20;;;;;;;1.90;0.40;;;28.40;58.40;;;;;;5035983;28;20033;-88
2022/08/10 11:41:58;;;;;;;2.50;0.63;;;28.60;58.10;;;;;;5050122;28;20111;-88
2022/08/10 11:44:39;;;;;;;1.23;0.50;;;28.70;57.90;;;;;;5023964;28;20112;-90
2022/08/10 11:47:31;;;;;;;2.45;0.40;;;28.70;57.50;;;;;;5035962;28;20032;-89
2022/08/10 11:50:11;;;;;;;2.22;0.60;;;28.90;57.60;;;;;;5035597;28;20075;-90
2022/08/10 11:52:52;;;;;;;1.85;0.40;;;29.00;57.30;;;;;;5035281;28;20029;-88
2022/08/10 11:55:23;;;;;;;4.32;0.38;;;29.10;56.80;;;;;;5034585;28;20484;-89
2022/08/10 11:57:53;;;;;;;0.85;0.30;;;29.10;55.70;;;;;;5015619;28;20033;-89
2022/08/10 12:00:19;;;;;;;2.47;0.40;;;29.10;55.50;;;;;;5041089;28;20028;-92
2022/08/10 12:02:55;;;;;;;2.45;0.30;;;29.20;55.10;;;;;;5035324;28;20040;-89
2022/08/10 12:05:26;;;;;;;4.15;0.52;;;29.20;55.10;;;;;;5035511;28;20053;-91
2022/08/10 12:07:53;;;;;;;;;;;29.10;54.30;;;;;;5031311;28;20124;-92
2022/08/10 12:10:21;;;;;;;2.58;0.40;;;29.00;54.70;;;;;;5035285;28;20020;-90
2022/08/10 12:13:03;;;;;;;3.30;0.63;;;29.10;54.80;;;;;;5032833;28;20071;-89
2022/08/10 12:15:37;;;;;;;1.08;0.40;;;29.10;53.20;;;;;;5035346;28;20033;-89
2022/08/10 12:18:12;;;;;;;2.17;0.40;;;29.00;53.20;;;;;;5053017;28;20536;-88
2022/08/10 12:20:42;;;;;;;2.55;0.40;;;29.10;53.30;;;;;;5038105;28;20029;-88
2022/08/10 12:23:18;;;;;;;1.83;0.50;;;29.20;53.30;;;;;;5035470;28;20082;-88
2022/08/10 12:26:06;;;;;;;2.05;0.40;;;29.10;53.60;;;;;;5035245;28;20496;-89
2022/08/10 12:28:41;;;;;;;0.77;0.30;;;29.10;53.30;;;;;;5035388;28;20057;-88
2022/08/10 12:31:10;;;;;;;3.15;0.30;;;29.20;53.00;;;;;;5035447;28;20021;-91
2022/08/10 12:33:45;;;;;;;1.70;0.40;;;29.20;52.30;;;;;;5022663;28;20036;-91
2022/08/10 12:36:31;;;;;;;3.25;0.40;;;29.20;52.00;;;;;;5035316;28;20018;-91
2022/08/10 12:39:23;;;;;;;1.85;0.40;;;29.30;52.20;;;;;;5015213;28;20388;-89
2022/08/10 12:41:59;;;;;;;2.28;0.32;;;29.30;52.10;;;;;;5031299;28;20550;-88
2022/08/10 12:44:47;;;;;;;2.25;0.40;;;29.40;52.20;;;;;;5034420;28;20054;-91
2022/08/10 12:47:39;;;;;;;2.05;0.40;;;29.50;51.80;;;;;;5032702;28;20025;-90
2022/08/10 12:50:28;;;;;;;2.22;0.40;;;29.50;51.60;;;;;;5032174;28;20055;-89
2022/08/10 12:53:08;;;;;;;1.77;0.40;;;29.50;51.90;;;;;;5034948;28;20397;-91
2022/08/10 12:55:37;;;;;;;1.35;0.40;;;29.70;51.90;;;;;;5033560;28;20064;-89
2022/08/10 12:58:06;;;;;;;3.22;0.40;;;29.70;51.80;;;;;;5015112;28;20079;-91
2022/08/10 13:00:33;;;;;;;1.65;0.38;;;29.70;51.80;;;;;;5049880;28;20055;-90
2022/08/10 13:03:01;;;;;;;1.45;0.43;;;29.70;51.00;;;;;;5037832;28;20021;-88
2022/08/10 13:05:29;;;;;;;2.45;0.50;;;29.70;51.20;;;;;;5034251;28;20079;-89
2022/08/10 13:11:04;;;;;;;1.65;0.20;;;29.60;50.90;;;;;;5067441;28;20059;-88
2022/08/10 13:13:34;;;;;;;0.80;0.40;;;29.80;50.90;;;;;;5055858;28;20017;-89
2022/08/10 13:16:01;;;;;;;0.88;0.30;;;29.90;50.90;;;;;;5018882;28;20025;-90
2022/08/10 13:18:33;;;;;;;2.45;0.40;;;30.10;50.00;;;;;;5019065;28;20152;-89
2022/08/10 13:21:06;;;;;;;1.60;0.47;;;30.20;49.90;;;;;;5036135;28;20021;-91
2022/08/10 13:23:38;;;;;;;0.80;0.30;;;30.30;50.30;;;;;;5036495;28;20068;-89
2022/08/10 13:26:07;;;;;;;0.80;0.30;;;30.40;49.50;;;;;;5056611;28;20067;-91